createdAt,value
2023-04-19T00:02:23.969Z,100622.56
2023-04-19T00:04:51.508Z,100625.84
2023-04-19T00:07:20.481Z,100620.38
2023-04-19T00:09:47.608Z,100614.69
2023-04-19T00:12:14.658Z,100612.72
2023-04-19T00:14:41.810Z,100619.66
2023-04-19T00:17:09.249Z,100610.91
2023-04-19T00:19:36.808Z,100606.69
2023-04-19T00:22:04.024Z,100603.28
2023-04-19T00:24:31.130Z,100610.19
2023-04-19T00:26:59.296Z,100598.91
2023-04-19T00:29:26.431Z,100606.31
2023-04-19T00:31:53.551Z,100605.75
2023-04-19T00:34:20.668Z,100596.63
2023-04-19T00:36:47.792Z,100597.41
2023-04-19T00:39:15.554Z,100587.94
2023-04-19T00:41:43.715Z,100585.25
2023-04-19T00:44:11.295Z,100580.94
2023-04-19T00:46:38.858Z,100576.34
2023-04-19T00:49:06.337Z,100574.66
2023-04-19T00:51:34.196Z,100563.31
2023-04-19T00:54:02.664Z,100570.38
2023-04-19T00:56:29.845Z,100567.28
2023-04-19T00:58:57.068Z,100568.66
2023-04-19T01:01:24.345Z,100566.34
2023-04-19T01:03:51.792Z,100570.38
2023-04-19T01:06:21.253Z,100560.75
2023-04-19T01:08:48.401Z,100567.28
2023-04-19T01:11:15.783Z,100565.59
2023-04-19T01:13:44.150Z,100570.50
2023-04-19T01:16:11.663Z,100564.09
2023-04-19T01:18:40.689Z,100567.22
2023-04-19T01:21:08.707Z,100539.97
2023-04-19T01:23:36.547Z,100539.72
2023-04-19T01:26:03.698Z,100543.97
2023-04-19T01:28:30.991Z,100538.59
2023-04-19T01:30:58.152Z,100519.41
2023-04-19T01:33:26.765Z,100527.31
2023-04-19T01:35:53.925Z,100513.38
2023-04-19T01:38:21.009Z,100515.34
2023-04-19T01:40:48.132Z,100505.50
2023-04-19T01:43:16.497Z,100505.94
2023-04-19T01:45:44.351Z,100495.53
2023-04-19T01:48:12.639Z,100501.84
2023-04-19T01:50:39.841Z,100495.66
2023-04-19T01:53:06.926Z,100479.16
2023-04-19T01:55:34.183Z,100485.94
2023-04-19T01:58:01.281Z,100488.00
2023-04-19T02:00:29.025Z,100483.91
2023-04-19T02:02:56.449Z,100472.06
2023-04-19T02:05:23.655Z,100473.16
2023-04-19T02:07:51.010Z,100472.91
2023-04-19T02:10:18.131Z,100464.28
2023-04-19T02:12:45.801Z,100466.13
2023-04-19T02:15:13.001Z,100462.16
2023-04-19T02:17:40.721Z,100456.59
2023-04-19T02:20:09.176Z,100465.09
2023-04-19T02:22:36.326Z,100461.94
2023-04-19T02:25:04.632Z,100451.06
2023-04-19T02:27:32.815Z,100459.88
2023-04-19T02:30:00.660Z,100464.13
2023-04-19T02:32:27.909Z,100457.94
2023-04-19T02:34:55.028Z,100468.34
2023-04-19T02:37:23.252Z,100455.50
2023-04-19T02:39:50.451Z,100458.59
2023-04-19T02:42:17.578Z,100464.38
2023-04-19T02:44:44.688Z,100461.94
2023-04-19T02:47:11.806Z,100460.97
2023-04-19T02:49:41.503Z,100453.09
2023-04-19T02:52:09.881Z,100455.63
2023-04-19T02:57:45.310Z,100860.88
2023-04-19T03:00:12.680Z,100862.69
2023-04-19T03:02:43.697Z,100870.31
2023-04-19T03:05:11.408Z,100853.44
2023-04-19T03:07:38.634Z,100844.56
2023-04-19T03:10:06.174Z,100830.50
2023-04-19T03:12:33.147Z,100817.16
2023-04-19T03:15:00.288Z,100800.38
2023-04-19T03:17:27.556Z,100791.38
2023-04-19T03:19:54.752Z,100774.75
2023-04-19T03:22:21.918Z,100778.03
2023-04-19T03:24:48.981Z,100769.03
2023-04-19T03:27:21.414Z,100776.91
2023-04-19T03:29:53.443Z,100765.38
2023-04-19T03:32:20.927Z,100761.72
2023-04-19T03:34:48.376Z,100759.22
2023-04-19T03:37:16.423Z,100755.31
2023-04-19T03:39:43.599Z,100754.44
2023-04-19T03:42:15.349Z,100739.84
2023-04-19T03:44:55.596Z,100719.13
2023-04-19T03:47:23.836Z,100723.75
2023-04-19T03:49:54.141Z,100709.41
2023-04-19T03:52:21.391Z,100713.91
2023-04-19T03:54:48.567Z,100711.34
2023-04-19T03:57:37.490Z,100678.66
2023-04-19T04:00:12.228Z,100691.06
2023-04-19T04:02:42.290Z,100686.22
2023-04-19T04:05:11.931Z,100681.97
2023-04-19T04:07:39.215Z,100687.94
2023-04-19T04:10:07.053Z,100683.66
2023-04-19T04:12:40.145Z,100666.44
2023-04-19T04:15:09.099Z,100660.16
2023-04-19T04:17:41.009Z,100651.06
2023-04-19T04:20:09.004Z,100655.78
2023-04-19T04:22:39.844Z,100653.84
2023-04-19T04:25:07.380Z,100655.66
2023-04-19T04:27:39.347Z,100662.81
2023-04-19T04:30:10.041Z,100649.72
2023-04-19T04:32:38.392Z,100650.44
2023-04-19T04:35:06.669Z,100658.44
2023-04-19T04:37:40.810Z,100632.75
2023-04-19T04:40:09.037Z,100631.06
2023-04-19T04:42:37.842Z,100634.94
2023-04-19T04:45:05.822Z,100645.38
2023-04-19T04:47:34.731Z,100638.34
2023-04-19T04:50:06.022Z,100648.78
2023-04-19T04:52:33.329Z,100648.78
2023-04-19T04:55:08.203Z,100640.28
2023-04-19T04:57:38.023Z,100648.53
2023-04-19T05:00:07.250Z,100651.19
2023-04-19T05:02:43.282Z,100645.97
2023-04-19T05:05:11.361Z,100652.03
2023-04-19T05:07:38.712Z,100662.22
2023-04-19T05:10:06.241Z,100675.94
2023-04-19T05:12:43.039Z,100675.44
2023-04-19T05:15:11.955Z,100695.81
2023-04-19T05:17:43.210Z,100691.41
2023-04-19T05:20:10.835Z,100696.84
2023-04-19T05:22:38.536Z,100714.84
2023-04-19T05:25:10.101Z,100730.56
2023-04-19T05:27:37.673Z,100725.22
2023-04-19T05:30:06.645Z,100760.47
2023-04-19T05:32:35.432Z,100735.41
2023-04-19T05:35:04.907Z,100742.09
2023-04-19T05:37:32.865Z,100743.41
2023-04-19T05:40:00.028Z,100732.47
2023-04-19T05:42:27.227Z,100709.56
2023-04-19T05:44:54.317Z,100695.88
2023-04-19T05:47:21.629Z,100672.25
2023-04-19T05:50:12.008Z,100643.22
2023-04-19T05:52:45.056Z,100642.91
2023-04-19T05:55:12.241Z,100651.59
2023-04-19T05:57:43.549Z,100623.69
2023-04-19T06:00:11.588Z,100614.28
2023-04-19T06:02:46.862Z,100585.34
2023-04-19T06:05:14.894Z,100578.25
2023-04-19T06:07:50.339Z,100584.28
2023-04-19T06:10:23.026Z,100585.66
2023-04-19T06:12:50.390Z,100586.84
2023-04-19T06:15:17.681Z,100578.38
2023-04-19T06:17:45.175Z,100594.00
2023-04-19T06:20:12.475Z,100584.91
2023-04-19T06:22:45.847Z,100580.13
2023-04-19T06:25:13.045Z,100570.41
2023-04-19T06:27:40.123Z,100577.31
2023-04-19T06:30:07.918Z,100571.41
2023-04-19T06:32:35.003Z,100569.56
2023-04-19T06:35:02.505Z,100581.81
2023-04-19T06:37:29.626Z,100569.69
2023-04-19T06:39:56.789Z,100572.50
2023-04-19T06:42:25.382Z,100565.56
2023-04-19T06:44:52.471Z,100558.09
2023-04-19T06:47:19.589Z,100570.47
2023-04-19T06:49:46.744Z,100564.28
2023-04-19T06:52:13.763Z,100573.75
2023-04-19T06:54:40.943Z,100575.19
2023-04-19T06:57:08.164Z,100577.13
2023-04-19T06:59:38.704Z,100568.53
2023-04-19T07:02:06.411Z,100568.25
2023-04-19T07:04:33.699Z,100569.94
2023-04-19T07:07:00.884Z,100573.22
2023-04-19T07:09:28.418Z,100566.06
2023-04-19T07:11:55.664Z,100574.22
2023-04-19T07:14:23.680Z,100578.59
2023-04-19T07:16:51.645Z,100573.13
2023-04-19T07:19:20.666Z,100565.41
2023-04-19T07:21:47.761Z,100568.63
2023-04-19T07:24:15.063Z,100563.03
2023-04-19T07:26:42.470Z,100580.50
2023-04-19T07:29:09.670Z,100572.34
2023-04-19T07:31:36.965Z,100567.84
2023-04-19T07:34:04.031Z,100567.84
2023-04-19T07:36:31.846Z,100570.25
2023-04-19T07:38:58.896Z,100570.97
2023-04-19T07:41:25.974Z,100562.94
2023-04-19T07:43:53.038Z,100566.72
2023-04-19T07:46:20.207Z,100558.69
2023-04-19T07:48:47.348Z,100559.53
2023-04-19T07:51:16.557Z,100557.88
2023-04-19T07:53:43.882Z,100548.69
2023-04-19T07:56:12.880Z,100555.69
2023-04-19T07:58:41.619Z,100551.19
2023-04-19T08:01:08.878Z,100549.38
2023-04-19T08:03:36.892Z,100550.81
2023-04-19T08:06:05.666Z,100557.72
2023-04-19T08:08:34.162Z,100548.16
2023-04-19T08:11:02.463Z,100551.50
2023-04-19T08:13:29.847Z,100553.50
2023-04-19T08:18:27.277Z,100557.59
2023-04-19T08:20:54.524Z,100563.38
2023-04-19T08:23:26.053Z,100565.22
2023-04-19T08:25:59.042Z,100557.50
2023-04-19T08:28:26.134Z,100575.94
2023-04-19T08:30:54.271Z,100572.03
2023-04-19T08:33:21.314Z,100578.94
2023-04-19T08:35:48.531Z,100576.97
2023-04-19T08:38:15.904Z,100584.16
2023-04-19T08:40:46.672Z,100573.59
2023-04-19T08:43:14.027Z,100579.41
2023-04-19T08:48:10.304Z,100594.31
2023-04-19T08:50:51.988Z,100582.63
2023-04-19T08:53:28.461Z,100560.69
2023-04-19T08:58:44.472Z,100576.19
2023-04-19T09:01:33.047Z,100551.25
2023-04-19T09:04:17.014Z,100561.53
2023-04-19T09:06:48.505Z,100549.13
2023-04-19T09:11:52.992Z,100554.63
2023-04-19T09:14:21.125Z,100571.94
2023-04-19T09:16:48.288Z,100552.78
2023-04-19T09:19:24.269Z,100554.97
2023-04-19T09:21:54.489Z,100547.66
2023-04-19T09:25:02.581Z,100553.56
2023-04-19T09:27:29.971Z,100513.00
2023-04-19T09:29:58.490Z,100537.34
2023-04-19T09:32:26.458Z,100538.06
2023-04-19T09:35:00.066Z,100556.50
2023-04-19T09:37:56.727Z,100543.41
2023-04-19T09:40:24.422Z,100520.84
2023-04-19T09:45:29.796Z,100529.00
2023-04-19T09:48:01.408Z,100518.31
2023-04-19T09:50:28.900Z,100517.16
2023-04-19T09:52:56.286Z,100529.84
2023-04-19T09:55:27.525Z,100531.84
2023-04-19T09:57:55.769Z,100525.22
2023-04-19T10:00:23.145Z,100524.50
2023-04-19T10:02:58.190Z,100533.25
2023-04-19T10:05:26.570Z,100513.09
2023-04-19T10:07:59.605Z,100520.53
2023-04-19T10:10:41.260Z,100508.41
2023-04-19T10:15:51.122Z,100493.13
2023-04-19T10:18:21.164Z,100483.94
2023-04-19T10:20:49.582Z,100490.28
2023-04-19T10:23:17.333Z,100488.56
2023-04-19T10:25:47.708Z,100482.78
2023-04-19T10:28:17.835Z,100491.66
2023-04-19T10:30:55.879Z,100478.97
2023-04-19T10:33:27.815Z,100466.94
2023-04-19T10:35:58.950Z,100476.06
2023-04-19T10:38:44.399Z,100468.56
2023-04-19T10:41:14.393Z,100453.19
2023-04-19T10:43:46.216Z,100463.75
2023-04-19T10:46:14.568Z,100463.03
2023-04-19T10:48:53.658Z,100476.47
2023-04-19T10:51:27.813Z,100450.59
2023-04-19T10:53:56.133Z,100452.78
2023-04-19T10:56:43.663Z,100452.53
2023-04-19T10:59:21.406Z,100428.88
2023-04-19T11:01:48.601Z,100428.28
2023-04-19T11:04:20.337Z,100441.00
2023-04-19T11:06:53.354Z,100434.38
2023-04-19T11:09:28.233Z,100433.72
2023-04-19T11:11:59.718Z,100425.31
2023-04-19T11:14:27.399Z,100434.78
2023-04-19T11:16:54.767Z,100441.41
2023-04-19T11:19:22.054Z,100433.81
2023-04-19T11:21:49.623Z,100427.22
2023-04-19T11:24:18.876Z,100423.44
2023-04-19T11:26:46.584Z,100411.72
2023-04-19T11:29:13.903Z,100397.50
2023-04-19T11:31:44.120Z,100406.78
2023-04-19T11:34:11.342Z,100388.22
2023-04-19T11:36:48.041Z,100389.91
2023-04-19T11:39:15.070Z,100373.59
2023-04-19T11:41:42.205Z,100363.41
2023-04-19T11:44:16.644Z,100358.91
2023-04-19T11:46:57.318Z,100356.69
2023-04-19T11:49:28.028Z,100344.44
2023-04-19T11:51:56.547Z,100353.72
2023-04-19T11:54:23.914Z,100361.34
2023-04-19T11:57:17.337Z,100351.34
2023-04-19T12:00:02.208Z,100338.13
2023-04-19T12:02:40.331Z,100339.91
2023-04-19T12:05:08.834Z,100354.44
2023-04-19T12:07:36.602Z,100355.00
2023-04-19T12:10:11.002Z,100349.47
2023-04-19T12:12:38.682Z,100363.56
2023-04-19T12:15:06.481Z,100383.50
2023-04-19T12:17:34.474Z,100377.16
2023-04-19T12:20:02.406Z,100356.56
2023-04-19T12:22:29.488Z,100360.75
2023-04-19T12:24:57.128Z,100359.88
2023-04-19T12:27:25.731Z,100369.13
2023-04-19T12:29:53.051Z,100353.28
2023-04-19T12:32:20.623Z,100333.56
2023-04-19T12:34:47.881Z,100306.41
2023-04-19T12:37:14.929Z,100321.97
2023-04-19T12:39:42.018Z,100302.41
2023-04-19T12:42:09.097Z,100281.88
2023-04-19T12:44:36.261Z,100287.06
2023-04-19T12:47:03.328Z,100274.34
2023-04-19T12:49:30.517Z,100266.03
2023-04-19T12:51:57.742Z,100263.34
2023-04-19T12:54:24.841Z,100248.69
2023-04-19T12:56:52.050Z,100238.81
2023-04-19T12:59:19.337Z,100233.50
2023-04-19T13:01:46.674Z,100214.91
2023-04-19T13:04:13.999Z,100201.13
2023-04-19T13:06:41.980Z,100215.72
2023-04-19T13:11:39.152Z,100201.09
2023-04-19T13:14:06.293Z,100192.28
2023-04-19T13:16:33.395Z,100188.59
2023-04-19T13:19:00.585Z,100207.66
2023-04-19T13:21:27.975Z,100221.75
2023-04-19T13:23:55.135Z,100205.66
2023-04-19T13:26:22.301Z,100186.50
2023-04-19T13:28:49.659Z,100174.63
2023-04-19T13:31:16.890Z,100164.66
2023-04-19T13:33:44.228Z,100161.50
2023-04-19T13:36:11.342Z,100157.66
2023-04-19T13:38:38.547Z,100121.72
2023-04-19T13:41:05.891Z,100061.06
2023-04-19T13:43:33.029Z,100032.81
2023-04-19T13:46:00.059Z,100001.97
2023-04-19T13:48:30.238Z,99958.47
2023-04-19T13:50:57.957Z,99967.66
2023-04-19T13:53:26.176Z,99939.44
2023-04-19T13:55:53.205Z,99861.63
2023-04-19T13:58:20.288Z,99842.59
2023-04-19T14:00:48.362Z,99796.34
2023-04-19T14:03:15.772Z,99710.78
2023-04-19T14:05:43.074Z,99684.06
2023-04-19T14:08:10.206Z,99635.63
2023-04-19T14:10:38.019Z,99602.06
2023-04-19T14:13:05.511Z,99503.06
2023-04-19T14:15:32.692Z,99489.44
2023-04-19T14:18:00.577Z,99415.38
2023-04-19T14:20:27.674Z,99326.03
2023-04-19T14:22:56.146Z,99330.22
2023-04-19T14:25:23.303Z,99220.31
2023-04-19T14:27:50.363Z,99150.28
2023-04-19T14:30:17.489Z,99088.88
2023-04-19T14:32:44.645Z,99078.75
2023-04-19T14:35:12.048Z,99005.38
2023-04-19T14:37:39.171Z,98936.56
2023-04-19T14:40:06.542Z,98829.53
2023-04-19T14:42:33.577Z,98848.28
2023-04-19T14:45:00.646Z,98799.44
2023-04-19T14:47:27.693Z,98799.66
2023-04-19T14:49:54.809Z,98685.66
2023-04-19T14:52:21.871Z,98629.66
2023-04-19T14:54:49.026Z,98631.00
2023-04-19T14:57:16.306Z,98591.34
2023-04-19T14:59:43.426Z,98474.88
2023-04-19T15:02:10.884Z,98436.75
2023-04-19T15:04:40.752Z,98451.41
2023-04-19T15:07:08.405Z,98408.19
2023-04-19T15:09:35.533Z,98403.63
2023-04-19T15:12:02.652Z,98324.53
2023-04-19T15:14:29.737Z,98284.34
2023-04-19T15:16:56.850Z,98248.00
2023-04-19T15:19:24.133Z,98226.41
2023-04-19T15:21:51.185Z,98183.47
2023-04-19T15:24:18.349Z,98152.94
2023-04-19T15:26:45.476Z,98062.94
2023-04-19T15:29:12.651Z,98000.38
2023-04-19T15:31:39.895Z,97971.09
2023-04-19T15:34:06.984Z,97849.16
2023-04-19T15:36:34.303Z,97750.28
2023-04-19T15:39:01.599Z,97723.88
2023-04-19T15:41:28.804Z,97711.75
2023-04-19T15:43:56.909Z,97683.66
2023-04-19T15:46:24.001Z,97673.97
2023-04-19T15:48:51.053Z,97710.00
2023-04-19T15:51:18.125Z,97623.75
2023-04-19T15:53:45.205Z,97636.25
2023-04-19T15:56:12.368Z,97530.09
2023-04-19T15:58:39.589Z,97472.59
2023-04-19T16:01:11.509Z,97426.91
2023-04-19T16:03:39.064Z,97391.88
2023-04-19T16:06:06.516Z,97361.81
2023-04-19T16:08:33.621Z,97343.53
2023-04-19T16:11:00.767Z,97338.34
2023-04-19T16:13:30.055Z,97248.13
2023-04-19T16:15:58.444Z,97193.38
2023-04-19T16:18:25.567Z,97143.50
2023-04-19T16:20:55.451Z,97067.47
2023-04-19T16:23:23.690Z,97063.53
2023-04-19T16:25:50.821Z,97001.34
2023-04-19T16:28:18.881Z,97000.78
2023-04-19T16:30:46.602Z,96971.50
2023-04-19T16:33:15.280Z,96960.03
2023-04-19T16:35:42.523Z,96939.84
2023-04-19T16:38:09.625Z,96961.69
2023-04-19T16:40:36.714Z,96936.22
2023-04-19T16:43:04.819Z,96930.50
2023-04-19T16:45:32.206Z,96917.00
2023-04-19T16:47:59.395Z,96858.47
2023-04-19T16:50:26.590Z,96816.34
2023-04-19T16:52:53.695Z,96816.13
2023-04-19T16:55:21.641Z,96801.34
2023-04-19T16:57:49.437Z,96762.28
2023-04-19T17:00:17.541Z,96749.28
2023-04-19T17:02:44.711Z,96722.09
2023-04-19T17:05:13.763Z,96691.38
2023-04-19T17:07:40.998Z,96676.16
2023-04-19T17:10:08.307Z,96652.44
2023-04-19T17:12:35.533Z,96631.75
2023-04-19T17:15:02.987Z,96593.47
2023-04-19T17:17:31.679Z,96577.31
2023-04-19T17:19:58.899Z,96577.28
2023-04-19T17:22:25.947Z,96594.44
2023-04-19T17:24:55.832Z,96593.25
2023-04-19T17:27:22.940Z,96591.78
2023-04-19T17:29:49.988Z,96578.25
2023-04-19T17:32:17.146Z,96589.00
2023-04-19T17:34:44.260Z,96585.81
2023-04-19T17:37:11.379Z,96601.16
2023-04-19T17:39:38.428Z,96628.94
2023-04-19T17:42:05.542Z,96651.75
2023-04-19T17:44:32.595Z,96656.81
2023-04-19T17:46:59.884Z,96669.38
2023-04-19T17:49:27.152Z,96671.09
2023-04-19T17:51:55.174Z,96684.47
2023-04-19T17:54:22.346Z,96701.53
2023-04-19T17:56:49.469Z,96730.28
2023-04-19T17:59:16.842Z,96741.47
2023-04-19T18:01:44.117Z,96770.38
2023-04-19T18:04:14.748Z,96774.75
2023-04-19T18:06:42.099Z,96781.53
2023-04-19T18:09:09.250Z,96805.78
2023-04-19T18:11:36.301Z,96817.91
2023-04-19T18:14:03.377Z,96834.53
2023-04-19T18:16:30.553Z,96840.28
2023-04-19T18:18:57.622Z,96874.31
2023-04-19T18:21:25.804Z,96879.88
2023-04-19T18:23:54.661Z,96907.69
2023-04-19T18:26:21.738Z,96907.91
2023-04-19T18:28:48.828Z,96925.16
2023-04-19T18:31:16.110Z,96943.19
2023-04-19T18:33:43.228Z,96957.09
2023-04-19T18:36:11.056Z,96973.28
2023-04-19T18:38:39.193Z,96987.41
2023-04-19T18:41:06.415Z,97016.50
2023-04-19T18:43:33.561Z,97038.22
2023-04-19T18:46:01.380Z,97056.22
2023-04-19T18:48:29.980Z,97080.75
2023-04-19T18:50:57.433Z,97120.28
2023-04-19T18:53:31.711Z,97136.47
2023-04-19T18:55:58.927Z,97148.75
2023-04-19T18:58:26.654Z,97168.00
2023-04-19T19:00:54.711Z,97177.78
2023-04-19T19:05:58.419Z,97215.44
2023-04-19T19:08:25.991Z,97228.72
2023-04-19T19:13:23.191Z,97250.88
2023-04-19T19:15:50.371Z,97270.41
2023-04-19T19:18:17.565Z,97309.16
2023-04-19T19:20:44.712Z,97313.31
2023-04-19T19:23:13.044Z,97332.81
2023-04-19T19:25:40.898Z,97367.69
2023-04-19T19:28:10.239Z,97377.66
2023-04-19T19:30:40.045Z,97399.75
2023-04-19T19:33:07.511Z,97424.38
2023-04-19T19:35:34.670Z,97528.72
2023-04-19T19:38:02.058Z,97588.06
2023-04-19T19:40:32.387Z,97611.84
2023-04-19T19:43:00.329Z,97615.56
2023-04-19T19:45:29.018Z,97591.38
2023-04-19T19:47:59.065Z,97572.38
2023-04-19T19:51:06.806Z,97604.09
2023-04-19T19:53:16.779Z,97647.53
2023-04-19T19:55:44.291Z,97700.34
2023-04-19T19:58:39.361Z,97741.31
2023-04-19T20:00:59.138Z,97804.13
2023-04-19T20:03:36.995Z,97886.84
2023-04-19T20:06:35.752Z,97871.72
2023-04-19T20:08:56.307Z,97892.78
2023-04-19T20:11:24.687Z,97952.03
2023-04-19T20:13:51.889Z,97966.38
2023-04-19T20:16:19.645Z,98006.34
2023-04-19T20:18:49.061Z,98025.53
2023-04-19T20:21:17.180Z,98073.53
2023-04-19T20:23:44.295Z,98105.25
2023-04-19T20:26:12.356Z,98115.56
2023-04-19T20:28:39.481Z,98116.78
2023-04-19T20:31:06.639Z,98159.28
2023-04-19T20:33:33.709Z,98169.13
2023-04-19T20:36:01.864Z,98192.03
2023-04-19T20:38:29.039Z,98207.81
2023-04-19T20:40:56.573Z,98223.97
2023-04-19T20:43:23.616Z,98240.75
2023-04-19T20:45:50.900Z,98260.69
2023-04-19T20:48:18.206Z,98287.28
2023-04-19T20:50:47.539Z,98328.16
2023-04-19T20:53:14.733Z,98346.75
2023-04-19T20:55:43.464Z,98357.75
2023-04-19T20:58:10.787Z,98379.19
2023-04-19T21:00:37.976Z,98370.34
2023-04-19T21:03:05.950Z,98402.25
2023-04-19T21:05:35.222Z,98402.91
2023-04-19T21:08:02.428Z,98420.97
2023-04-19T21:10:29.502Z,98452.88
2023-04-19T21:12:56.612Z,98480.28
2023-04-19T21:15:23.715Z,98518.19
2023-04-19T21:17:50.897Z,98549.16
2023-04-19T21:20:18.296Z,98553.06
2023-04-19T21:22:46.572Z,98573.03
2023-04-19T21:25:13.708Z,98593.13
2023-04-19T21:27:41.839Z,98598.19
2023-04-19T21:30:09.461Z,98625.22
2023-04-19T21:32:36.557Z,98634.28
2023-04-19T21:35:04.060Z,98667.84
2023-04-19T21:37:31.286Z,98683.78
2023-04-19T21:39:58.331Z,98734.22
2023-04-19T21:42:25.410Z,98753.03
2023-04-19T21:44:52.433Z,98741.00
2023-04-19T21:47:19.558Z,98792.19
2023-04-19T21:49:47.129Z,98801.06
2023-04-19T21:52:14.195Z,98799.53
2023-04-19T21:54:41.701Z,98836.25
2023-04-19T21:57:08.875Z,98885.28
2023-04-19T21:59:36.708Z,98900.63
2023-04-19T22:02:03.856Z,98904.88
2023-04-19T22:04:31.294Z,98914.88
2023-04-19T22:07:02.208Z,98918.16
2023-04-19T22:09:29.979Z,98896.84
2023-04-19T22:11:57.080Z,98934.84
2023-04-19T22:14:24.181Z,98929.56
2023-04-19T22:16:51.437Z,98940.50
2023-04-19T22:19:18.789Z,98948.41
2023-04-19T22:21:46.663Z,98955.41
2023-04-19T22:24:13.783Z,99074.03
2023-04-19T22:26:40.907Z,99125.16
2023-04-19T22:29:07.989Z,99162.16
2023-04-19T22:31:35.260Z,99185.78
2023-04-19T22:34:02.427Z,99197.50
2023-04-19T22:36:30.553Z,99196.66
2023-04-19T22:38:57.664Z,99208.16
2023-04-19T22:41:24.860Z,99216.38
2023-04-19T22:43:52.031Z,99222.66
2023-04-19T22:46:19.134Z,99233.16
2023-04-19T22:48:48.224Z,99268.03
2023-04-19T22:51:18.161Z,99276.69
2023-04-19T22:53:45.240Z,99277.25
2023-04-19T22:56:12.284Z,99284.53
2023-04-19T22:58:39.345Z,99286.50
2023-04-19T23:01:06.739Z,99289.56
2023-04-19T23:03:33.938Z,99306.47
2023-04-19T23:06:03.482Z,99306.66
2023-04-19T23:08:30.941Z,99311.78
2023-04-19T23:10:58.023Z,99305.22
2023-04-19T23:13:25.086Z,99303.53
2023-04-19T23:15:52.876Z,99308.19
2023-04-19T23:18:21.341Z,99315.00
2023-04-19T23:20:48.442Z,99325.38
2023-04-19T23:23:15.788Z,99327.19
2023-04-19T23:25:42.838Z,99329.44
2023-04-19T23:28:12.356Z,99337.13
2023-04-19T23:30:39.809Z,99335.16
2023-04-19T23:33:06.984Z,99382.69
2023-04-19T23:35:34.223Z,99400.59
2023-04-19T23:38:01.239Z,99403.69
2023-04-19T23:40:28.298Z,99405.50
2023-04-19T23:42:55.365Z,99409.38
2023-04-19T23:45:22.501Z,99409.75
2023-04-19T23:47:49.897Z,99421.94
2023-04-19T23:50:17.029Z,99436.38
2023-04-19T23:52:44.070Z,99429.66
2023-04-19T23:55:11.080Z,99431.28
2023-04-19T23:57:38.132Z,99435.19
